Friday, October 19, 2018, 2:52 AM EDT
Back to Local

KNUI, Knui Webster Field Annex

Location: Saint Inigoes, MD, United States Lat: 38.15
Local Time: 2:52 AM EDT ( 6:52 GMT) Lon: -76.417
Time Zone: US/Eastern Elev: 19 ft

Show me the last for .
Show Decoded

2018-10-19 01:53 METAR KNUI 190553Z AUTO 00000KT 10SM CLR 05/04 A3038 RMK AO2 SLP286 T00500039
                 10072 20044 56009 =
2018-10-19 00:53 METAR KNUI 190453Z AUTO 07003KT 10SM CLR 05/04 A3038 RMK AO2 SLP287 T00500039
                 401440050 =
2018-10-18 23:53 METAR KNUI 190353Z AUTO 00000KT 10SM CLR 05/04 A3039 RMK AO2 SLP291 T00500039 =
2018-10-18 22:53 METAR KNUI 190253Z AUTO 00000KT 10SM CLR 06/04 A3040 RMK AO2 SLP295 T00560044
                 53001 =
2018-10-18 21:53 METAR KNUI 190153Z AUTO 08003KT 10SM CLR 06/04 A3041 RMK AO2 SLP295 T00560044 =
2018-10-18 20:53 METAR KNUI 190053Z AUTO 00000KT 10SM CLR 06/05 A3040 RMK AO2 SLP293 T00610050 =
2018-10-18 19:53 METAR KNUI 182353Z AUTO 00000KT 10SM CLR 07/04 A3040 RMK AO2 SLP294 T00720044
                 10144 20072 53009 =
2018-10-18 18:53 METAR KNUI 182253Z AUTO 00000KT 10SM CLR 09/04 A3039 RMK AO2 SLP290 T00940039 =
2018-10-18 17:53 METAR KNUI 182153Z AUTO VRB04KT 10SM CLR 13/00 A3038 RMK AO2 SLP287 T01330000 =
2018-10-18 16:53 METAR KNUI 182053Z AUTO 30007KT 10SM CLR 14/00 A3037 RMK AO2 SLP285 T01440000
                 56007 =
2018-10-18 15:53 METAR KNUI 181953Z AUTO VRB05KT 10SM CLR 14/M01 A3038 RMK AO2 SLP287 T01441006 =
2018-10-18 14:53 METAR KNUI 181853Z AUTO 30007KT 10SM CLR 14/M01 iM&NRMK AO2 SLP287 T01391006 =
2018-10-18 13:53 METAR KNUI 181753Z AUTO VRB05KT 10SM CLR 14/00 A3040 RMK AO2 SLP292 T01390000
                 10144 20094 58014 =
2018-10-18 12:53 METAR KNUI 181653Z AUTO 29007KT 10SM CLR 14/00 A3042 RMK AO2 SLP300 T01390000 =
2018-10-18 11:53 METAR KNUI 181553Z AUTO 31005KT 10SM CLR 12/M02 A3044 RMK AO2 SLP306 T01221017 =
2018-10-18 10:53 METAR KNUI 181453Z AUTO VRB04G15KT 10SM CLR 12/M02 A3044 RMK AO2 SLP306
                 T01221022 51012 =
2018-10-18 09:53 METAR KNUI 181353Z AUTO 34007KT 300V030 10SM CLR 11/M03 A3043 RMK AO2 SLP304
                 T01111028 =
2018-10-18 08:53 METAR KNUI 181253Z AUTO VRB06G14KT 10SM CLR 11/M02 A3042 RMK AO2 SLP300
                 T01061022 =
2018-10-18 07:53 METAR KNUI 181153Z AUTO VRB03KT 10SM CLR 09/M02 A3040 RMK AO2 SLP294 T00941017
                 10133 20094 53028 =
2018-10-18 06:53 METAR KNUI 181053Z AUTO VRB05KT 10SM CLR 09/M02 A3038 RMK AO2 SLP285 T00941022 =
2018-10-18 05:53 METAR KNUI 180953Z AUTO VRB06KT 10SM CLR 10/00 A3034 RMK AO2 SLP274 T01000000 =
2018-10-18 04:53 METAR KNUI 180853Z AUTO VRB06KT 10SM CLR 11/02 A3032 RMK AO2 SLP266 T01060017
                 53028 =
2018-10-18 03:53 METAR KNUI 180753Z AUTO 10SM CLR 12/02 A3029 RMK AO2 SLP256 T01170017 =
2018-10-18 02:53 METAR KNUI 180653Z AUTO VRB03KT 10SM CLR 12/03 A3026 RMK AO2 SLP246 T01220028 =

Support USWX by starting your Amazon purchase here.